This is the latest recevied weather packets stored in our database for station/object KO6LQJ. If no packets are shown the sender has not sent any weather packets the latest 10 day(s).
| Time | Temp. | Humidity | Pressure | Rain* | Wind** | Luminosity | Snow |
|---|---|---|---|---|---|---|---|
| 1777662356 | 22.78° C | 53% | 1016.2 hPa | 0 mm | - | 727 W/m² | - |
| 1777662052 | 22.22° C | 56% | 1016.2 hPa | 0 mm | - | 749 W/m² | - |
| 1777661748 | 23.33° C | 53% | 1016.3 hPa | 0 mm | - | 778 W/m² | - |
| 1777661444 | 22.78° C | 53% | 1016.5 hPa | 0 mm | - | 766 W/m² | - |
| 1777661140 | 22.78° C | 54% | 1016.5 hPa | 0 mm | - | 765 W/m² | - |
| 1777660840 | 22.78° C | 54% | 1016.4 hPa | 0 mm | - | 758 W/m² | - |
| 1777660538 | 22.22° C | 55% | 1016.5 hPa | 0 mm | - | 789 W/m² | - |
| 1777660234 | 22.78° C | 55% | 1016.4 hPa | 0 mm | - | 792 W/m² | - |
| 1777659931 | 22.22° C | 56% | 1016.5 hPa | 0 mm | - | 800 W/m² | - |
| 1777659628 | 21.11° C | 59% | 1016.8 hPa | 0 mm | - | 619 W/m² | - |
| 1777659325 | 21.11° C | 60% | 1016.9 hPa | 0 mm | - | 480 W/m² | - |
| 1777659021 | 21.11° C | 59% | 1016.7 hPa | 0 mm | - | 330 W/m² | - |
| 1777658719 | 20.56° C | 60% | 1016.7 hPa | 0 mm | - | 865 W/m² | - |
| 1777658415 | 20° C | 61% | 1016.9 hPa | 0 mm | - | 513 W/m² | - |
| 1777658112 | 20.56° C | 60% | 1017.1 hPa | 0 mm | - | 255 W/m² | - |
| 1777657809 | 20.56° C | 60% | 1017 hPa | 0 mm | - | 416 W/m² | - |
| 1777657506 | 20.56° C | 61% | 1017 hPa | 0 mm | - | 308 W/m² | - |
| 1777657204 | 20° C | 61% | 1017.3 hPa | 0 mm | - | 387 W/m² | - |
| 1777656901 | 20° C | 62% | 1017.2 hPa | 0 mm | - | 287 W/m² | - |
| 1777656596 | 19.44° C | 63% | 1017 hPa | 0 mm | - | 255 W/m² | - |
| 1777656293 | 20° C | 62% | 1017.3 hPa | 0 mm | - | 248 W/m² | - |
| 1777655988 | 18.89° C | 64% | 1017.2 hPa | 0 mm | - | 765 W/m² | - |
| 1777655684 | 18.89° C | 64% | 1017.2 hPa | 0 mm | - | 305 W/m² | - |
| 1777655381 | 18.33° C | 66% | 1017.1 hPa | 0 mm | - | 288 W/m² | - |
| 1777655078 | 17.78° C | 67% | 1017.1 hPa | 0 mm | - | 295 W/m² | - |
* Rain latest hour (hover to see other rain measurements)
** Current wind speed in m/s (hover to see current wind gust speed)